sensor_id;sensor_type;location;lat;lon;timestamp;pressure;altitude;pressure_sealevel;temperature;humidity
54872;BME280;43914;57.680;11.982;2023-09-18T00:00:46;100813.67;;;13.55;100.00
54872;BME280;43914;57.680;11.982;2023-09-18T00:03:18;100809.72;;;13.55;100.00
54872;BME280;43914;57.680;11.982;2023-09-18T00:05:46;100809.59;;;13.55;100.00
54872;BME280;43914;57.680;11.982;2023-09-18T00:08:14;100802.36;;;13.54;100.00
54872;BME280;43914;57.680;11.982;2023-09-18T00:10:41;100801.23;;;13.52;100.00
54872;BME280;43914;57.680;11.982;2023-09-18T00:13:08;100794.02;;;13.51;100.00
54872;BME280;43914;57.680;11.982;2023-09-18T00:15:34;100790.15;;;13.50;100.00
54872;BME280;43914;57.680;11.982;2023-09-18T00:17:59;100790.80;;;13.47;100.00
54872;BME280;43914;57.680;11.982;2023-09-18T00:20:25;100789.42;;;13.45;100.00
54872;BME280;43914;57.680;11.982;2023-09-18T00:22:54;100786.81;;;13.45;100.00
54872;BME280;43914;57.680;11.982;2023-09-18T00:25:20;100785.23;;;13.44;100.00
54872;BME280;43914;57.680;11.982;2023-09-18T00:27:45;100784.95;;;13.46;100.00
54872;BME280;43914;57.680;11.982;2023-09-18T00:30:11;100786.36;;;13.46;100.00
54872;BME280;43914;57.680;11.982;2023-09-18T00:32:37;100785.79;;;13.46;100.00
54872;BME280;43914;57.680;11.982;2023-09-18T00:35:02;100786.61;;;13.46;100.00
54872;BME280;43914;57.680;11.982;2023-09-18T00:37:28;100788.67;;;13.47;100.00
54872;BME280;43914;57.680;11.982;2023-09-18T00:39:54;100784.34;;;13.47;100.00
54872;BME280;43914;57.680;11.982;2023-09-18T00:42:20;100783.96;;;13.47;100.00
54872;BME280;43914;57.680;11.982;2023-09-18T00:44:48;100786.65;;;13.49;100.00
54872;BME280;43914;57.680;11.982;2023-09-18T00:47:15;100785.74;;;13.49;100.00
54872;BME280;43914;57.680;11.982;2023-09-18T00:49:45;100780.42;;;13.48;100.00
54872;BME280;43914;57.680;11.982;2023-09-18T00:52:11;100778.70;;;13.47;100.00
54872;BME280;43914;57.680;11.982;2023-09-18T00:54:38;100774.39;;;13.47;100.00
54872;BME280;43914;57.680;11.982;2023-09-18T00:57:05;100768.00;;;13.48;100.00
54872;BME280;43914;57.680;11.982;2023-09-18T00:59:31;100763.77;;;13.48;100.00
54872;BME280;43914;57.680;11.982;2023-09-18T01:01:59;100758.54;;;13.48;100.00
54872;BME280;43914;57.680;11.982;2023-09-18T01:04:25;100766.71;;;13.47;100.00
54872;BME280;43914;57.680;11.982;2023-09-18T01:06:52;100765.14;;;13.47;100.00
54872;BME280;43914;57.680;11.982;2023-09-18T01:09:18;100762.02;;;13.47;100.00
54872;BME280;43914;57.680;11.982;2023-09-18T01:14:42;100767.99;;;13.45;100.00
54872;BME280;43914;57.680;11.982;2023-09-18T01:17:10;100765.96;;;13.45;100.00
54872;BME280;43914;57.680;11.982;2023-09-18T01:19:45;100762.03;;;13.43;100.00
54872;BME280;43914;57.680;11.982;2023-09-18T01:22:17;100765.05;;;13.43;100.00
54872;BME280;43914;57.680;11.982;2023-09-18T01:24:44;100759.79;;;13.42;100.00
54872;BME280;43914;57.680;11.982;2023-09-18T01:27:12;100755.08;;;13.41;100.00
54872;BME280;43914;57.680;11.982;2023-09-18T01:29:38;100757.52;;;13.40;100.00
54872;BME280;43914;57.680;11.982;2023-09-18T01:32:04;100753.89;;;13.39;100.00
54872;BME280;43914;57.680;11.982;2023-09-18T01:34:35;100751.41;;;13.37;100.00
54872;BME280;43914;57.680;11.982;2023-09-18T01:37:03;100752.98;;;13.36;100.00
54872;BME280;43914;57.680;11.982;2023-09-18T01:39:31;100744.75;;;13.36;100.00
54872;BME280;43914;57.680;11.982;2023-09-18T01:42:02;100737.37;;;13.36;100.00
54872;BME280;43914;57.680;11.982;2023-09-18T01:44:29;100732.80;;;13.35;100.00
54872;BME280;43914;57.680;11.982;2023-09-18T01:46:59;100726.39;;;13.34;100.00
54872;BME280;43914;57.680;11.982;2023-09-18T01:49:31;100721.21;;;13.34;100.00
54872;BME280;43914;57.680;11.982;2023-09-18T01:51:57;100717.05;;;13.33;100.00
54872;BME280;43914;57.680;11.982;2023-09-18T01:54:23;100714.73;;;13.33;100.00
54872;BME280;43914;57.680;11.982;2023-09-18T01:56:50;100713.48;;;13.32;100.00
54872;BME280;43914;57.680;11.982;2023-09-18T01:59:15;100712.69;;;13.31;100.00
54872;BME280;43914;57.680;11.982;2023-09-18T02:01:41;100707.61;;;13.29;100.00
54872;BME280;43914;57.680;11.982;2023-09-18T02:04:06;100704.39;;;13.29;100.00
54872;BME280;43914;57.680;11.982;2023-09-18T02:06:32;100697.98;;;13.29;100.00
54872;BME280;43914;57.680;11.982;2023-09-18T02:08:58;100694.16;;;13.28;100.00
54872;BME280;43914;57.680;11.982;2023-09-18T02:11:23;100697.27;;;13.29;100.00
54872;BME280;43914;57.680;11.982;2023-09-18T02:13:50;100698.19;;;13.28;100.00
54872;BME280;43914;57.680;11.982;2023-09-18T02:16:16;100693.41;;;13.27;100.00
54872;BME280;43914;57.680;11.982;2023-09-18T02:18:41;100687.93;;;13.27;100.00
54872;BME280;43914;57.680;11.982;2023-09-18T02:21:08;100687.10;;;13.28;100.00
54872;BME280;43914;57.680;11.982;2023-09-18T02:23:34;100684.73;;;13.28;100.00
54872;BME280;43914;57.680;11.982;2023-09-18T02:25:59;100677.89;;;13.28;100.00
54872;BME280;43914;57.680;11.982;2023-09-18T02:28:26;100670.20;;;13.29;100.00
54872;BME280;43914;57.680;11.982;2023-09-18T02:30:51;100662.81;;;13.29;100.00
54872;BME280;43914;57.680;11.982;2023-09-18T02:33:18;100659.13;;;13.30;100.00
54872;BME280;43914;57.680;11.982;2023-09-18T02:35:43;100656.24;;;13.31;100.00
54872;BME280;43914;57.680;11.982;2023-09-18T02:38:10;100654.17;;;13.31;100.00
54872;BME280;43914;57.680;11.982;2023-09-18T02:40:35;100653.80;;;13.32;100.00
54872;BME280;43914;57.680;11.982;2023-09-18T02:43:01;100654.39;;;13.33;100.00
54872;BME280;43914;57.680;11.982;2023-09-18T02:45:27;100651.86;;;13.33;100.00
54872;BME280;43914;57.680;11.982;2023-09-18T02:47:53;100652.40;;;13.35;100.00
54872;BME280;43914;57.680;11.982;2023-09-18T02:50:18;100647.20;;;13.35;100.00
54872;BME280;43914;57.680;11.982;2023-09-18T02:52:44;100640.02;;;13.36;100.00
54872;BME280;43914;57.680;11.982;2023-09-18T02:55:09;100629.84;;;13.36;100.00
54872;BME280;43914;57.680;11.982;2023-09-18T02:57:35;100633.91;;;13.37;100.00
54872;BME280;43914;57.680;11.982;2023-09-18T03:00:01;100635.41;;;13.38;100.00
54872;BME280;43914;57.680;11.982;2023-09-18T03:02:28;100632.39;;;13.39;100.00
54872;BME280;43914;57.680;11.982;2023-09-18T03:04:54;100629.23;;;13.41;100.00
54872;BME280;43914;57.680;11.982;2023-09-18T03:07:19;100626.45;;;13.42;100.00
54872;BME280;43914;57.680;11.982;2023-09-18T03:09:45;100624.36;;;13.43;100.00
54872;BME280;43914;57.680;11.982;2023-09-18T03:12:10;100624.29;;;13.45;100.00
54872;BME280;43914;57.680;11.982;2023-09-18T03:14:36;100621.49;;;13.45;100.00
54872;BME280;43914;57.680;11.982;2023-09-18T03:17:01;100622.50;;;13.47;100.00
54872;BME280;43914;57.680;11.982;2023-09-18T03:19:27;100621.79;;;13.48;100.00
54872;BME280;43914;57.680;11.982;2023-09-18T03:21:52;100615.56;;;13.49;100.00
54872;BME280;43914;57.680;11.982;2023-09-18T03:24:18;100609.08;;;13.51;100.00
54872;BME280;43914;57.680;11.982;2023-09-18T03:26:44;100602.81;;;13.52;100.00
54872;BME280;43914;57.680;11.982;2023-09-18T03:29:10;100595.70;;;13.54;100.00
54872;BME280;43914;57.680;11.982;2023-09-18T03:31:36;100593.41;;;13.54;100.00
54872;BME280;43914;57.680;11.982;2023-09-18T03:34:01;100586.94;;;13.56;100.00
54872;BME280;43914;57.680;11.982;2023-09-18T03:36:27;100569.58;;;13.57;100.00
54872;BME280;43914;57.680;11.982;2023-09-18T03:38:52;100560.23;;;13.59;100.00
54872;BME280;43914;57.680;11.982;2023-09-18T03:41:18;100544.41;;;13.61;100.00
54872;BME280;43914;57.680;11.982;2023-09-18T03:43:43;100532.14;;;13.62;100.00
54872;BME280;43914;57.680;11.982;2023-09-18T03:46:09;100531.77;;;13.65;100.00
54872;BME280;43914;57.680;11.982;2023-09-18T03:48:35;100529.02;;;13.67;100.00
54872;BME280;43914;57.680;11.982;2023-09-18T03:51:06;100531.19;;;13.69;100.00
54872;BME280;43914;57.680;11.982;2023-09-18T03:53:33;100530.01;;;13.71;100.00
54872;BME280;43914;57.680;11.982;2023-09-18T03:55:59;100522.65;;;13.72;100.00
54872;BME280;43914;57.680;11.982;2023-09-18T03:58:25;100529.46;;;13.74;100.00
54872;BME280;43914;57.680;11.982;2023-09-18T04:00:55;100527.27;;;13.76;100.00
54872;BME280;43914;57.680;11.982;2023-09-18T04:03:21;100518.98;;;13.77;100.00
54872;BME280;43914;57.680;11.982;2023-09-18T04:05:47;100508.80;;;13.79;100.00
54872;BME280;43914;57.680;11.982;2023-09-18T04:08:12;100499.45;;;13.80;100.00
54872;BME280;43914;57.680;11.982;2023-09-18T04:10:38;100491.25;;;13.82;100.00
54872;BME280;43914;57.680;11.982;2023-09-18T04:13:05;100486.09;;;13.84;100.00
54872;BME280;43914;57.680;11.982;2023-09-18T04:15:31;100479.27;;;13.87;100.00
54872;BME280;43914;57.680;11.982;2023-09-18T04:17:56;100473.48;;;13.88;100.00
54872;BME280;43914;57.680;11.982;2023-09-18T04:20:22;100473.04;;;13.89;100.00
54872;BME280;43914;57.680;11.982;2023-09-18T04:23:17;100473.91;;;13.92;100.00
54872;BME280;43914;57.680;11.982;2023-09-18T04:25:42;100464.80;;;13.93;100.00
54872;BME280;43914;57.680;11.982;2023-09-18T04:28:08;100469.29;;;13.93;100.00
54872;BME280;43914;57.680;11.982;2023-09-18T04:30:34;100460.05;;;13.94;100.00
54872;BME280;43914;57.680;11.982;2023-09-18T04:32:59;100455.77;;;13.95;100.00
54872;BME280;43914;57.680;11.982;2023-09-18T04:35:24;100454.34;;;13.96;100.00
54872;BME280;43914;57.680;11.982;2023-09-18T04:37:50;100454.13;;;13.98;100.00
54872;BME280;43914;57.680;11.982;2023-09-18T04:40:21;100452.13;;;13.98;100.00
54872;BME280;43914;57.680;11.982;2023-09-18T04:42:46;100450.17;;;13.99;100.00
54872;BME280;43914;57.680;11.982;2023-09-18T04:45:12;100439.80;;;14.01;100.00
54872;BME280;43914;57.680;11.982;2023-09-18T04:47:37;100432.94;;;14.03;100.00
54872;BME280;43914;57.680;11.982;2023-09-18T04:50:03;100426.13;;;14.03;100.00
54872;BME280;43914;57.680;11.982;2023-09-18T04:52:31;100424.55;;;14.05;100.00
54872;BME280;43914;57.680;11.982;2023-09-18T04:54:58;100421.47;;;14.05;100.00
54872;BME280;43914;57.680;11.982;2023-09-18T04:57:24;100425.17;;;14.04;100.00
54872;BME280;43914;57.680;11.982;2023-09-18T04:59:49;100427.08;;;14.05;100.00
54872;BME280;43914;57.680;11.982;2023-09-18T05:02:15;100426.79;;;14.05;100.00
54872;BME280;43914;57.680;11.982;2023-09-18T05:04:42;100426.66;;;14.05;100.00
54872;BME280;43914;57.680;11.982;2023-09-18T05:07:10;100429.45;;;14.04;100.00
54872;BME280;43914;57.680;11.982;2023-09-18T05:09:35;100424.30;;;14.04;100.00
54872;BME280;43914;57.680;11.982;2023-09-18T05:12:03;100418.68;;;14.05;100.00
54872;BME280;43914;57.680;11.982;2023-09-18T05:14:29;100422.16;;;14.06;100.00
54872;BME280;43914;57.680;11.982;2023-09-18T05:16:55;100411.53;;;14.06;100.00
54872;BME280;43914;57.680;11.982;2023-09-18T05:19:21;100407.98;;;14.07;100.00
54872;BME280;43914;57.680;11.982;2023-09-18T05:21:46;100399.85;;;14.10;100.00
54872;BME280;43914;57.680;11.982;2023-09-18T05:24:13;100397.52;;;14.12;100.00
54872;BME280;43914;57.680;11.982;2023-09-18T05:26:39;100387.63;;;14.14;100.00
54872;BME280;43914;57.680;11.982;2023-09-18T05:29:04;100388.86;;;14.15;100.00
54872;BME280;43914;57.680;11.982;2023-09-18T05:31:30;100382.56;;;14.17;100.00
54872;BME280;43914;57.680;11.982;2023-09-18T05:33:55;100379.35;;;14.18;100.00
54872;BME280;43914;57.680;11.982;2023-09-18T05:36:21;100367.19;;;14.18;100.00
54872;BME280;43914;57.680;11.982;2023-09-18T05:38:47;100366.01;;;14.19;100.00
54872;BME280;43914;57.680;11.982;2023-09-18T05:41:12;100363.64;;;14.19;100.00
54872;BME280;43914;57.680;11.982;2023-09-18T05:43:39;100365.18;;;14.18;100.00
54872;BME280;43914;57.680;11.982;2023-09-18T05:46:05;100366.64;;;14.18;100.00
54872;BME280;43914;57.680;11.982;2023-09-18T05:48:31;100366.80;;;14.18;100.00
54872;BME280;43914;57.680;11.982;2023-09-18T05:50:57;100367.85;;;14.20;100.00
54872;BME280;43914;57.680;11.982;2023-09-18T05:53:22;100363.30;;;14.22;100.00
54872;BME280;43914;57.680;11.982;2023-09-18T05:55:48;100361.58;;;14.23;100.00
54872;BME280;43914;57.680;11.982;2023-09-18T05:58:13;100355.00;;;14.25;100.00
54872;BME280;43914;57.680;11.982;2023-09-18T06:00:39;100350.52;;;14.27;100.00
54872;BME280;43914;57.680;11.982;2023-09-18T06:03:05;100341.91;;;14.29;100.00
54872;BME280;43914;57.680;11.982;2023-09-18T06:05:31;100342.49;;;14.28;100.00
54872;BME280;43914;57.680;11.982;2023-09-18T06:08:00;100339.67;;;14.28;100.00
54872;BME280;43914;57.680;11.982;2023-09-18T06:10:25;100340.41;;;14.29;100.00
54872;BME280;43914;57.680;11.982;2023-09-18T06:12:51;100330.34;;;14.29;100.00
54872;BME280;43914;57.680;11.982;2023-09-18T06:15:17;100321.86;;;14.29;100.00
54872;BME280;43914;57.680;11.982;2023-09-18T06:17:44;100324.32;;;14.30;100.00
54872;BME280;43914;57.680;11.982;2023-09-18T06:20:11;100322.39;;;14.32;100.00
54872;BME280;43914;57.680;11.982;2023-09-18T06:22:38;100310.52;;;14.34;100.00
54872;BME280;43914;57.680;11.982;2023-09-18T06:25:06;100306.17;;;14.37;100.00
54872;BME280;43914;57.680;11.982;2023-09-18T06:27:34;100302.47;;;14.41;100.00
54872;BME280;43914;57.680;11.982;2023-09-18T06:30:02;100297.39;;;14.47;100.00
54872;BME280;43914;57.680;11.982;2023-09-18T06:32:27;100287.33;;;14.53;100.00
54872;BME280;43914;57.680;11.982;2023-09-18T06:34:53;100277.98;;;14.59;100.00
54872;BME280;43914;57.680;11.982;2023-09-18T06:37:19;100274.77;;;14.64;100.00
54872;BME280;43914;57.680;11.982;2023-09-18T06:39:45;100273.13;;;14.66;100.00
54872;BME280;43914;57.680;11.982;2023-09-18T06:42:11;100262.83;;;14.67;100.00
54872;BME280;43914;57.680;11.982;2023-09-18T06:44:37;100266.36;;;14.69;100.00
54872;BME280;43914;57.680;11.982;2023-09-18T06:47:03;100262.61;;;14.72;100.00
54872;BME280;43914;57.680;11.982;2023-09-18T06:49:28;100243.35;;;14.76;100.00
54872;BME280;43914;57.680;11.982;2023-09-18T06:51:54;100240.92;;;14.77;100.00
54872;BME280;43914;57.680;11.982;2023-09-18T06:54:19;100239.14;;;14.80;100.00
54872;BME280;43914;57.680;11.982;2023-09-18T06:56:45;100234.54;;;14.81;100.00
54872;BME280;43914;57.680;11.982;2023-09-18T06:59:10;100233.80;;;14.85;100.00
54872;BME280;43914;57.680;11.982;2023-09-18T07:01:37;100225.02;;;14.89;100.00
54872;BME280;43914;57.680;11.982;2023-09-18T07:04:03;100229.79;;;14.91;100.00
54872;BME280;43914;57.680;11.982;2023-09-18T07:06:30;100222.80;;;14.93;100.00
54872;BME280;43914;57.680;11.982;2023-09-18T07:08:55;100215.58;;;14.94;100.00
54872;BME280;43914;57.680;11.982;2023-09-18T07:11:21;100208.70;;;14.95;100.00
54872;BME280;43914;57.680;11.982;2023-09-18T07:13:48;100205.89;;;14.97;100.00
54872;BME280;43914;57.680;11.982;2023-09-18T07:16:15;100208.70;;;14.99;100.00
54872;BME280;43914;57.680;11.982;2023-09-18T07:18:40;100203.05;;;15.02;100.00
54872;BME280;43914;57.680;11.982;2023-09-18T07:21:06;100200.95;;;15.04;100.00
54872;BME280;43914;57.680;11.982;2023-09-18T07:23:31;100207.14;;;15.08;100.00
54872;BME280;43914;57.680;11.982;2023-09-18T07:25:57;100215.04;;;15.11;100.00
54872;BME280;43914;57.680;11.982;2023-09-18T07:28:26;100218.64;;;15.14;100.00
54872;BME280;43914;57.680;11.982;2023-09-18T07:30:51;100222.65;;;15.16;100.00
54872;BME280;43914;57.680;11.982;2023-09-18T07:33:17;100218.31;;;15.20;100.00
54872;BME280;43914;57.680;11.982;2023-09-18T07:35:49;100219.16;;;15.25;100.00
54872;BME280;43914;57.680;11.982;2023-09-18T07:38:17;100213.70;;;15.32;100.00
54872;BME280;43914;57.680;11.982;2023-09-18T07:40:45;100204.17;;;15.37;100.00
54872;BME280;43914;57.680;11.982;2023-09-18T07:43:13;100205.07;;;15.45;100.00
54872;BME280;43914;57.680;11.982;2023-09-18T07:45:39;100197.58;;;15.50;100.00
54872;BME280;43914;57.680;11.982;2023-09-18T07:48:06;100185.77;;;15.54;100.00
54872;BME280;43914;57.680;11.982;2023-09-18T07:50:32;100183.17;;;15.57;100.00
54872;BME280;43914;57.680;11.982;2023-09-18T07:52:59;100185.27;;;15.60;100.00
54872;BME280;43914;57.680;11.982;2023-09-18T07:55:24;100185.60;;;15.63;100.00
54872;BME280;43914;57.680;11.982;2023-09-18T07:57:51;100170.86;;;15.67;100.00
54872;BME280;43914;57.680;11.982;2023-09-18T08:00:17;100162.08;;;15.71;100.00
54872;BME280;43914;57.680;11.982;2023-09-18T08:02:44;100157.70;;;15.75;100.00
54872;BME280;43914;57.680;11.982;2023-09-18T08:05:10;100155.32;;;15.78;100.00
54872;BME280;43914;57.680;11.982;2023-09-18T08:07:37;100156.11;;;15.82;100.00
54872;BME280;43914;57.680;11.982;2023-09-18T08:10:03;100147.38;;;15.88;100.00
54872;BME280;43914;57.680;11.982;2023-09-18T08:12:32;100143.04;;;15.96;100.00
54872;BME280;43914;57.680;11.982;2023-09-18T08:14:58;100140.13;;;16.05;100.00
54872;BME280;43914;57.680;11.982;2023-09-18T08:17:25;100140.54;;;16.15;100.00
54872;BME280;43914;57.680;11.982;2023-09-18T08:19:52;100141.50;;;16.24;100.00
54872;BME280;43914;57.680;11.982;2023-09-18T08:22:19;100144.94;;;16.28;100.00
54872;BME280;43914;57.680;11.982;2023-09-18T08:24:46;100144.48;;;16.29;100.00
54872;BME280;43914;57.680;11.982;2023-09-18T08:27:16;100137.77;;;16.30;100.00
54872;BME280;43914;57.680;11.982;2023-09-18T08:29:47;100135.58;;;16.31;100.00
54872;BME280;43914;57.680;11.982;2023-09-18T08:32:13;100123.66;;;16.32;100.00
54872;BME280;43914;57.680;11.982;2023-09-18T08:34:39;100118.44;;;16.34;100.00
54872;BME280;43914;57.680;11.982;2023-09-18T08:37:04;100115.11;;;16.36;100.00
54872;BME280;43914;57.680;11.982;2023-09-18T08:39:30;100116.20;;;16.36;100.00
54872;BME280;43914;57.680;11.982;2023-09-18T08:42:05;100120.33;;;16.36;100.00
54872;BME280;43914;57.680;11.982;2023-09-18T08:44:33;100120.48;;;16.40;100.00
54872;BME280;43914;57.680;11.982;2023-09-18T08:47:02;100121.95;;;16.41;100.00
54872;BME280;43914;57.680;11.982;2023-09-18T08:49:29;100121.55;;;16.42;100.00
54872;BME280;43914;57.680;11.982;2023-09-18T08:51:56;100114.75;;;16.47;100.00
54872;BME280;43914;57.680;11.982;2023-09-18T08:54:22;100117.77;;;16.51;100.00
54872;BME280;43914;57.680;11.982;2023-09-18T08:56:50;100117.98;;;16.54;100.00
54872;BME280;43914;57.680;11.982;2023-09-18T08:59:16;100114.70;;;16.60;100.00
54872;BME280;43914;57.680;11.982;2023-09-18T09:01:42;100105.09;;;16.63;100.00
54872;BME280;43914;57.680;11.982;2023-09-18T09:04:07;100095.83;;;16.64;100.00
54872;BME280;43914;57.680;11.982;2023-09-18T09:06:34;100087.09;;;16.66;100.00
54872;BME280;43914;57.680;11.982;2023-09-18T09:09:01;100087.98;;;16.68;100.00
54872;BME280;43914;57.680;11.982;2023-09-18T09:11:27;100080.89;;;16.66;100.00
54872;BME280;43914;57.680;11.982;2023-09-18T09:14:22;100077.68;;;16.59;100.00
54872;BME280;43914;57.680;11.982;2023-09-18T09:16:54;100072.44;;;16.50;100.00
54872;BME280;43914;57.680;11.982;2023-09-18T09:19:31;100069.37;;;16.39;100.00
54872;BME280;43914;57.680;11.982;2023-09-18T09:21:58;100065.26;;;16.30;100.00
54872;BME280;43914;57.680;11.982;2023-09-18T09:24:42;100060.54;;;16.22;100.00
54872;BME280;43914;57.680;11.982;2023-09-18T09:27:09;100059.54;;;16.13;100.00
54872;BME280;43914;57.680;11.982;2023-09-18T09:29:37;100055.88;;;16.06;100.00
54872;BME280;43914;57.680;11.982;2023-09-18T09:32:13;100049.23;;;16.03;100.00
54872;BME280;43914;57.680;11.982;2023-09-18T09:34:41;100039.32;;;16.06;100.00
54872;BME280;43914;57.680;11.982;2023-09-18T09:37:07;100030.48;;;16.08;100.00
54872;BME280;43914;57.680;11.982;2023-09-18T09:39:33;100024.79;;;16.13;100.00
54872;BME280;43914;57.680;11.982;2023-09-18T09:42:03;100013.86;;;16.22;100.00
54872;BME280;43914;57.680;11.982;2023-09-18T09:44:32;100007.61;;;16.30;100.00
54872;BME280;43914;57.680;11.982;2023-09-18T09:46:59;100002.07;;;16.37;100.00
54872;BME280;43914;57.680;11.982;2023-09-18T09:49:25;100004.30;;;16.46;100.00
54872;BME280;43914;57.680;11.982;2023-09-18T09:51:53;99998.45;;;16.56;100.00
54872;BME280;43914;57.680;11.982;2023-09-18T09:54:45;100000.25;;;16.65;100.00
54872;BME280;43914;57.680;11.982;2023-09-18T09:57:11;99995.94;;;16.76;100.00
54872;BME280;43914;57.680;11.982;2023-09-18T09:59:36;99993.36;;;16.86;100.00
54872;BME280;43914;57.680;11.982;2023-09-18T10:02:02;99991.59;;;16.96;100.00
54872;BME280;43914;57.680;11.982;2023-09-18T10:04:29;99982.11;;;17.03;100.00
54872;BME280;43914;57.680;11.982;2023-09-18T10:07:06;99974.88;;;17.10;100.00
54872;BME280;43914;57.680;11.982;2023-09-18T10:09:35;99970.04;;;17.13;100.00
54872;BME280;43914;57.680;11.982;2023-09-18T10:12:03;99970.56;;;17.22;100.00
54872;BME280;43914;57.680;11.982;2023-09-18T10:14:35;99960.95;;;17.29;100.00
54872;BME280;43914;57.680;11.982;2023-09-18T10:17:16;99959.90;;;17.32;100.00
54872;BME280;43914;57.680;11.982;2023-09-18T10:20:08;99948.77;;;17.35;100.00
54872;BME280;43914;57.680;11.982;2023-09-18T10:22:49;99940.38;;;17.37;100.00
54872;BME280;43914;57.680;11.982;2023-09-18T10:25:20;99933.98;;;17.38;100.00
54872;BME280;43914;57.680;11.982;2023-09-18T10:27:50;99930.86;;;17.40;100.00
54872;BME280;43914;57.680;11.982;2023-09-18T10:30:20;99931.70;;;17.44;100.00
54872;BME280;43914;57.680;11.982;2023-09-18T10:32:50;99936.65;;;17.47;100.00
54872;BME280;43914;57.680;11.982;2023-09-18T10:35:16;99929.39;;;17.52;100.00
54872;BME280;43914;57.680;11.982;2023-09-18T10:37:42;99910.48;;;17.57;100.00
54872;BME280;43914;57.680;11.982;2023-09-18T10:40:09;99904.94;;;17.62;100.00
54872;BME280;43914;57.680;11.982;2023-09-18T10:42:38;99898.74;;;17.65;100.00
54872;BME280;43914;57.680;11.982;2023-09-18T10:45:04;99907.95;;;17.72;100.00
54872;BME280;43914;57.680;11.982;2023-09-18T10:47:31;99906.67;;;17.74;100.00
54872;BME280;43914;57.680;11.982;2023-09-18T10:49:57;99900.43;;;17.79;100.00
54872;BME280;43914;57.680;11.982;2023-09-18T10:52:23;99900.72;;;17.80;100.00
54872;BME280;43914;57.680;11.982;2023-09-18T10:54:49;99894.12;;;17.79;100.00
54872;BME280;43914;57.680;11.982;2023-09-18T10:57:14;99885.35;;;17.81;100.00
54872;BME280;43914;57.680;11.982;2023-09-18T10:59:44;99873.84;;;17.82;100.00
54872;BME280;43914;57.680;11.982;2023-09-18T11:02:14;99860.73;;;17.83;100.00
54872;BME280;43914;57.680;11.982;2023-09-18T11:04:42;99858.98;;;17.81;100.00
54872;BME280;43914;57.680;11.982;2023-09-18T11:07:08;99857.33;;;17.84;100.00
54872;BME280;43914;57.680;11.982;2023-09-18T11:09:43;99863.96;;;17.88;100.00
54872;BME280;43914;57.680;11.982;2023-09-18T11:12:09;99860.63;;;17.92;100.00
54872;BME280;43914;57.680;11.982;2023-09-18T11:20:24;99844.79;;;17.92;100.00
54872;BME280;43914;57.680;11.982;2023-09-18T11:25:55;99831.09;;;17.91;100.00
54872;BME280;43914;57.680;11.982;2023-09-18T11:28:25;99818.68;;;17.91;100.00
54872;BME280;43914;57.680;11.982;2023-09-18T11:30:55;99814.33;;;17.95;100.00
54872;BME280;43914;57.680;11.982;2023-09-18T11:38:51;99804.71;;;18.03;100.00
54872;BME280;43914;57.680;11.982;2023-09-18T11:41:26;99805.66;;;17.97;100.00
54872;BME280;43914;57.680;11.982;2023-09-18T11:44:21;99804.63;;;17.94;100.00
54872;BME280;43914;57.680;11.982;2023-09-18T11:46:46;99806.14;;;18.01;100.00
54872;BME280;43914;57.680;11.982;2023-09-18T11:49:24;99800.48;;;18.10;100.00
54872;BME280;43914;57.680;11.982;2023-09-18T11:51:54;99785.88;;;18.14;100.00
54872;BME280;43914;57.680;11.982;2023-09-18T11:54:20;99773.91;;;18.19;100.00
54872;BME280;43914;57.680;11.982;2023-09-18T11:56:49;99772.17;;;18.21;100.00
54872;BME280;43914;57.680;11.982;2023-09-18T11:59:15;99774.17;;;18.25;100.00
54872;BME280;43914;57.680;11.982;2023-09-18T12:01:43;99771.07;;;18.32;100.00
54872;BME280;43914;57.680;11.982;2023-09-18T12:04:12;99767.96;;;18.37;100.00
54872;BME280;43914;57.680;11.982;2023-09-18T12:06:41;99760.48;;;18.42;100.00
54872;BME280;43914;57.680;11.982;2023-09-18T12:09:07;99751.63;;;18.44;100.00
54872;BME280;43914;57.680;11.982;2023-09-18T12:11:34;99740.48;;;18.45;100.00
54872;BME280;43914;57.680;11.982;2023-09-18T12:14:03;99733.77;;;18.51;100.00
54872;BME280;43914;57.680;11.982;2023-09-18T12:16:37;99733.43;;;18.51;100.00
54872;BME280;43914;57.680;11.982;2023-09-18T12:19:04;99726.83;;;18.53;100.00
54872;BME280;43914;57.680;11.982;2023-09-18T12:21:32;99723.40;;;18.54;100.00
54872;BME280;43914;57.680;11.982;2023-09-18T12:23:58;99725.12;;;18.53;100.00
54872;BME280;43914;57.680;11.982;2023-09-18T12:26:25;99716.45;;;18.49;100.00
54872;BME280;43914;57.680;11.982;2023-09-18T12:28:51;99709.70;;;18.49;100.00
54872;BME280;43914;57.680;11.982;2023-09-18T12:31:16;99710.29;;;18.46;100.00
54872;BME280;43914;57.680;11.982;2023-09-18T12:33:43;99707.55;;;18.43;100.00
54872;BME280;43914;57.680;11.982;2023-09-18T12:36:09;99703.39;;;18.40;100.00
54872;BME280;43914;57.680;11.982;2023-09-18T12:38:37;99700.60;;;18.38;100.00
54872;BME280;43914;57.680;11.982;2023-09-18T12:41:04;99695.77;;;18.37;100.00
54872;BME280;43914;57.680;11.982;2023-09-18T12:43:41;99695.99;;;18.39;100.00
54872;BME280;43914;57.680;11.982;2023-09-18T12:46:08;99682.09;;;18.42;100.00
54872;BME280;43914;57.680;11.982;2023-09-18T12:48:38;99669.33;;;18.46;100.00
54872;BME280;43914;57.680;11.982;2023-09-18T12:51:11;99669.13;;;18.52;100.00